• Join FlightAware (Why Join?)
  • Login
  • US Flag 
12:26PM EST


 

Airport Tracker/Info


-or-


 

Live Flight TrackerFlight Track Log ✈ AAL532 ✈ 29-Jun-2013 ✈ KSEA - KORD

Flight Track Log - Related Links

Times and Time Zones

All times are in EDT time to prevent confusion due to time zone crossing. See the AAL532 flight status page for this flight to view local times or setup timezone preferences in your user account.

Time Position Orientation Groundspeed Altitude Reporting Facility
EDT Latitude Longitude Course Direction KTS MPH feet Rate Location/Type
06:04PM 47.4258 -122.3080 180° South 187 215 900  Level FlightAware ADS-B
06:04PM 47.4200 -122.3080 180° South 184 212 1,200 2,760 Climbing FlightAware ADS-B
06:04PM 47.4130 -122.3080 180° South 184 212 1,600 1,740 Climbing FlightAware ADS-B
06:04PM 47.3997 -122.3090 183° South 197 227 1,900 1,260 Climbing FlightAware ADS-B
06:04PM 47.3875 -122.3090 180° South 213 245 2,200 1,260 Climbing FlightAware ADS-B
06:05PM 47.3763 -122.3090 180° South 227 261 2,400 1,680 Climbing FlightAware ADS-B
06:05PM 47.3601 -122.3100 182° South 240 276 2,900 1,560 Climbing FlightAware ADS-B
06:05PM 47.3475 -122.3100 180° South 253 291 3,100 1,320 Climbing FlightAware ADS-B
06:05PM 47.3399 -122.3100 180° South 259 298 3,300 1,800 Climbing FlightAware ADS-B
06:05PM 47.3363 -122.3090 169° South 262 302 3,400 1,680 Climbing FlightAware ADS-B
06:05PM 47.3313 -122.3080 172° South 264 304 3,500 2,220 Climbing FlightAware ADS-B
06:05PM 47.3266 -122.3060 164° South 266 306 3,700 3,000 Climbing FlightAware ADS-B
06:05PM 47.3218 -122.3030 157° South 266 306 3,900 2,520 Climbing FlightAware ADS-B
06:05PM 47.3181 -122.3000 151° Southeast 267 307 4,000 2,220 Climbing FlightAware ADS-B
06:06PM 47.3136 -122.2950 143° Southeast 268 308 4,200 3,000 Climbing FlightAware ADS-B
06:06PM 47.3106 -122.2900 132° Southeast 269 310 4,400 3,000 Climbing FlightAware ADS-B
06:06PM 47.3083 -122.2860 130° Southeast 268 308 4,500 2,520 Climbing FlightAware ADS-B
06:06PM 47.3063 -122.2810 121° Southeast 269 310 4,700 3,420 Climbing FlightAware ADS-B
06:06PM 47.3043 -122.2740 113° Southeast 269 310 4,900 3,000 Climbing FlightAware ADS-B
06:06PM 47.3028 -122.2670 108° East 270 311 5,100 1,980 Climbing FlightAware ADS-B
06:06PM 47.3018 -122.2590 100° East 272 313 5,200 2,520 Climbing FlightAware ADS-B
06:06PM 47.3016 -122.2520 92° East 274 315 5,400 2,520 Climbing FlightAware ADS-B
06:06PM 47.3017 -122.2450 89° East 276 318 5,500 2,700 Climbing FlightAware ADS-B
06:06PM 47.3025 -122.2320 85° East 277 319 5,900 3,240 Climbing FlightAware ADS-B
06:06PM 47.3032 -122.2240 83° East 277 319 6,100 3,000 Climbing FlightAware ADS-B
06:06PM 47.3042 -122.2170 78° East 277 319 6,300 2,520 Climbing FlightAware ADS-B
06:06PM 47.3054 -122.2120 71° East 278 320 6,400 1,680 Climbing FlightAware ADS-B
06:06PM 47.3071 -122.2060 67° East 281 323 6,500 2,220 Climbing FlightAware ADS-B
06:06PM 47.3097 -122.1990 61° Northeast 283 326 6,700 2,220 Climbing FlightAware ADS-B
06:07PM 47.3124 -122.1930 56° Northeast 285 328 6,800 2,520 Climbing FlightAware ADS-B
06:07PM 47.3154 -122.1870 54° Northeast 285 328 7,000 3,000 Climbing FlightAware ADS-B
06:07PM 47.3192 -122.1800 51° Northeast 286 329 7,200 2,100 Climbing FlightAware ADS-B
06:07PM 47.3328 -122.1580 48° Northeast 289 333 7,700 1,500 Climbing FlightAware ADS-B
06:07PM 47.3443 -122.1380 50° Northeast 288 331 7,900 780 Climbing FlightAware ADS-B
06:07PM 47.3574 -122.1150 50° Northeast 288 331 8,100 1,140 Climbing FlightAware ADS-B
06:08PM 47.3703 -122.0910 52° Northeast 296 341 8,500 1,980 Climbing FlightAware ADS-B
06:08PM 47.3833 -122.0670 51° Northeast 300 345 9,100 2,400 Climbing FlightAware ADS-B
06:08PM 47.3965 -122.0430 51° Northeast 304 350 9,700 2,100 Climbing FlightAware ADS-B
06:08PM 47.4107 -122.0160 52° Northeast 315 362 10,200 1,560 Climbing FlightAware ADS-B
06:09PM 47.4185 -121.9990 56° Northeast 323 372 10,400 1,020 Climbing FlightAware ADS-B
06:09PM 47.4238 -121.9860 59° Northeast 329 379 10,500 1,380 Climbing FlightAware ADS-B
06:09PM 47.4280 -121.9740 63° Northeast 332 382 10,700 2,100 Climbing FlightAware ADS-B
06:09PM 47.4324 -121.9570 69° East 332 382 11,000 2,400 Climbing FlightAware ADS-B
06:09PM 47.4355 -121.9400 75° East 333 383 11,300 2,760 Climbing FlightAware ADS-B
06:09PM 47.4371 -121.9230 82° East 330 380 11,700 2,580 Climbing FlightAware ADS-B
06:09PM 47.4375 -121.9060 88° East 328 377 12,000 2,340 Climbing FlightAware ADS-B
06:10PM 47.4357 -121.8490 93° East 334 384 13,000 2,280 Climbing FlightAware ADS-B
06:10PM 47.4313 -121.7790 95° East 346 398 14,100 2,160 Climbing FlightAware ADS-B
06:11PM 47.4253 -121.7050 97° East 358 412 15,200 2,040 Climbing FlightAware ADS-B
06:11PM 47.4204 -121.6300 95° East 375 432 16,200 2,220 Climbing FlightAware ADS-B
06:12PM 47.4165 -121.5510 94° East 380 437 17,500 2,340 Climbing FlightAware ADS-B
06:12PM 47.4132 -121.4720 94° East 385 443 18,600 1,920 Climbing FlightAware ADS-B
06:13PM 47.4099 -121.3920 93° East 398 458 19,500 1,860 Climbing FlightAware ADS-B
06:13PM 47.4066 -121.3080 93° East 405 466 20,500 2,100 Climbing FlightAware ADS-B
06:14PM 47.4030 -121.2240 94° East 411 473 21,600 1,860 Climbing FlightAware ADS-B
06:14PM 47.3995 -121.1400 93° East 419 482 22,400 1,560 Climbing FlightAware ADS-B
06:15PM 47.3960 -121.0530 93° East 430 495 23,200 1,560 Climbing FlightAware ADS-B
06:15PM 47.3938 -120.9640 92° East 438 504 24,000 1,560 Climbing FlightAware ADS-B
06:16PM 47.3947 -120.8720 89° East 446 513 24,800 1,620 Climbing FlightAware ADS-B
06:16PM 47.3975 -120.7780 87° East 451 519 25,700 1,620 Climbing FlightAware ADS-B
06:17PM 47.4001 -120.6840 88° East 454 522 26,500 1,440 Climbing FlightAware ADS-B
06:17PM 47.4028 -120.5900 88° East 460 529 27,200 1,320 Climbing FlightAware ADS-B
06:18PM 47.4070 -120.4940 86° East 465 535 27,900 1,260 Climbing FlightAware ADS-B
06:18PM 47.4116 -120.3980 86° East 472 543 28,500 1,080 Climbing FlightAware ADS-B
06:19PM 47.4162 -120.2990 86° East 480 552 29,000 1,080 Climbing FlightAware ADS-B
06:19PM 47.4206 -120.1990 86° East 485 558 29,600 1,080 Climbing FlightAware ADS-B
06:20PM 47.4237 -120.1220 87° East 489 563 30,000 1,020 Climbing FlightAware ADS-B
06:20PM 47.4239 -120.1020 89° East 488 562 30,100 1,080 Climbing FlightAware ADS-B
06:20PM 47.4256 -119.9970 89° East 494 568 30,700 1,020 Climbing FlightAware ADS-B
06:21PM 47.4280 -119.8880 88° East 500 575 31,200 1,020 Climbing FlightAware ADS-B
06:22PM 47.4326 -119.7460 87° East 501 577 32,000 1,260 Climbing FlightAware ADS-B
06:22PM 47.4365 -119.6330 87° East 500 575 32,800 1,380 Climbing FlightAware ADS-B
06:23PM 47.4402 -119.5320 87° East 496 571 33,500 780 Climbing FlightAware ADS-B
06:25PM 47.4539 -119.0780 87° East 508 585 35,000 420 Climbing FlightAware ADS-B
06:26PM 47.4610 -118.8300 87° East 511 588 35,000  Level FlightAware ADS-B
06:31PM 47.4810 -118.1890 87° East 515 593 35,000  Level FlightAware
06:32PM 47.4870 -118.0090 87° East 515 593 35,000  Level FlightAware
06:32PM 47.4910 -117.8980 87° East 515 593 35,000  Level FlightAware
06:33PM 47.4960 -117.7550 87° East 515 593 35,000  Level FlightAware
06:34PM 47.5000 -117.6500 87° East 515 593 35,000  Level FlightAware
06:34PM 47.5050 -117.5090 87° East 515 593 35,000  Level FlightAware
06:35PM 47.5090 -117.4010 87° East 515 593 35,000  Level FlightAware
06:36PM 47.5150 -117.2160 87° East 515 593 35,000  Level FlightAware
06:38PM 47.5250 -116.9310 87° East 515 593 35,000  Level FlightAware
06:38PM 47.5300 -116.7870 87° East 515 593 35,000  Level FlightAware
06:39PM 47.5340 -116.6800 87° East 515 593 35,000  Level FlightAware
06:40PM 47.3428 -116.0817 87° East 490 564 35,000  Level Salt Lake Center
06:41PM 47.3208 -115.8458 98° East 486 559 35,000 -60 Level Seattle Center
06:42PM 47.3056 -115.6725 97° East 484 557 34,900  Descending Seattle Center
06:43PM 47.2831 -115.4406 98° East 482 555 35,000  Climbing Seattle Center
06:44PM 47.2636 -115.2450 98° East 486 559 35,000  Level Seattle Center
06:45PM 47.2486 -115.0878 98° East 490 564 35,000  Level Salt Lake Center
06:46PM 47.2289 -114.8917 98° East 489 563 35,000 -60 Level Salt Lake Center
06:47PM 47.2094 -114.6942 98° East 492 566 34,900  Descending Salt Lake Center
06:48PM 47.1892 -114.4992 99° East 488 562 35,000  Climbing Salt Lake Center
06:49PM 47.1692 -114.3031 98° East 488 562 35,000 -60 Level Salt Lake Center
06:50PM 47.1922 -114.0631 82° East 501 577 34,900  Descending Salt Lake Center
06:51PM 47.2203 -113.8658 78° East 495 570 35,000  Climbing Salt Lake Center
06:52PM 47.2478 -113.6675 78° East 497 572 35,000 -60 Level Salt Lake Center
06:53PM 47.2758 -113.4703 78° East 496 571 34,900  Descending Salt Lake Center
06:54PM 47.3036 -113.2725 78° East 496 571 35,000  Climbing Salt Lake Center
06:55PM 47.3297 -113.0753 79° East 495 570 35,000  Level Salt Lake Center
06:56PM 47.3608 -112.8536 78° East 495 570 35,000  Level Salt Lake Center
06:57PM 47.3889 -112.6569 78° East 493 567 35,000  Level Salt Lake Center
06:58PM 47.4158 -112.4594 79° East 492 566 35,000  Level Salt Lake Center
06:59PM 47.4431 -112.2611 78° East 495 570 35,000  Level Salt Lake Center
07:00PM 47.4711 -112.0633 78° East 493 567 35,000  Level Salt Lake Center
07:01PM 47.5028 -111.8236 79° East 496 571 35,000 -60 Level Salt Lake Center
07:02PM 47.5314 -111.6222 78° East 501 577 34,900  Descending Salt Lake Center
07:03PM 47.5578 -111.4225 79° East 501 577 35,000  Climbing Salt Lake Center
07:04PM 47.5886 -111.2022 78° East 505 581 35,000 -60 Level Salt Lake Center
07:05PM 47.6211 -110.9875 77° East 511 588 34,900  Descending Salt Lake Center
07:06PM 47.6508 -110.7875 77° East 502 578 35,000  Climbing Salt Lake Center
07:07PM 47.6792 -110.5853 78° East 504 580 35,000 -60 Level Salt Lake Center
07:08PM 47.7017 -110.3817 81° East 503 579 34,900  Descending Salt Lake Center
07:09PM 47.7203 -110.1764 82° East 503 579 35,000  Climbing Salt Lake Center
07:10PM 47.7203 -109.9694 90° East 503 579 35,000  Level Salt Lake Center
07:11PM 47.7133 -109.7625 93° East 503 579 35,000  Level Salt Lake Center
07:12PM 47.7025 -109.5569 94° East 502 578 35,000 -60 Level Salt Lake Center
07:13PM 47.6797 -109.3539 99° East 501 577 34,900  Descending Salt Lake Center
07:14PM 47.6253 -109.1217 109° East 496 571 35,000  Climbing Salt Lake Center
07:15PM 47.5747 -108.9328 112° Southeast 494 568 34,900  Descending Salt Lake Center
07:16PM 47.5250 -108.7428 111° Southeast 496 571 35,000  Climbing Salt Lake Center
07:17PM 47.4767 -108.5519 110° East 496 571 34,900  Descending Salt Lake Center
07:19PM 47.4278 -108.3619 111° Southeast 496 571 35,000  Climbing Salt Lake Center
07:20PM 47.3783 -108.1725 111° Southeast 497 572 34,900 -60 Descending Salt Lake Center
07:21PM 47.3292 -107.9831 111° Southeast 496 571 34,900  Level Salt Lake Center
07:22PM 47.2797 -107.7942 111° Southeast 495 570 35,000  Climbing Salt Lake Center
07:23PM 47.2214 -107.5697 111° Southeast 492 566 34,900  Descending Salt Lake Center
07:24PM 47.1764 -107.4053 112° Southeast 494 568 35,000  Climbing Salt Lake Center
07:25PM 47.1150 -107.1806 112° Southeast 496 571 35,000  Level Salt Lake Center
07:26PM 47.0650 -106.9936 111° Southeast 495 570 35,000 -60 Level Salt Lake Center
07:27PM 47.0142 -106.8081 112° Southeast 493 567 34,900 -60 Descending Salt Lake Center
07:28PM 46.9642 -106.6250 112° Southeast 488 562 34,900  Level Salt Lake Center
07:29PM 46.9136 -106.4406 112° Southeast 489 563 34,900  Level Salt Lake Center
07:30PM 46.8619 -106.2575 112° Southeast 489 563 34,900  Level Salt Lake Center
07:31PM 46.8094 -106.0739 113° Southeast 490 564 35,000  Climbing Salt Lake Center
07:32PM 46.7464 -105.8511 112° Southeast 494 568 34,900  Descending Salt Lake Center
07:33PM 46.6942 -105.6650 112° Southeast 496 571 35,000  Climbing Salt Lake Center
07:34PM 46.6400 -105.4778 113° Southeast 499 574 35,000  Level Salt Lake Center
07:35PM 46.5856 -105.2908 113° Southeast 501 577 35,000  Level Salt Lake Center
07:36PM 46.5306 -105.1036 113° Southeast 503 579 35,000 -60 Level Salt Lake Center
07:37PM 46.4761 -104.9167 113° Southeast 504 580 34,900  Descending Salt Lake Center
07:38PM 46.4197 -104.7292 114° Southeast 506 582 35,000  Climbing Salt Lake Center
07:39PM 46.3544 -104.5072 113° Southeast 506 582 35,000 -60 Level Salt Lake Center
07:40PM 46.2992 -104.3233 113° Southeast 504 580 34,900  Descending Salt Lake Center
07:41PM 46.2442 -104.1419 114° Southeast 501 577 35,000  Climbing Salt Lake Center
07:42PM 46.1881 -103.9578 114° Southeast 501 577 35,000  Level Salt Lake Center
07:43PM 46.1319 -103.7769 114° Southeast 500 575 35,000  Level Salt Lake Center
07:44PM 46.0756 -103.5967 114° Southeast 498 573 35,000  Level Salt Lake Center
07:45PM 46.0081 -103.3775 114° Southeast 499 574 35,000  Level Salt Lake Center
07:46PM 45.9506 -103.1950 114° Southeast 501 577 35,000 -60 Level Salt Lake Center
07:47PM 45.8933 -103.0236 116° Southeast 501 577 34,900  Descending Minneapolis Center
07:48PM 45.8364 -102.8428 114° Southeast 500 575 35,000  Climbing Minneapolis Center
07:49PM 45.7750 -102.6544 115° Southeast 500 575 35,000  Level Minneapolis Center
07:50PM 45.7272 -102.5103 115° Southeast 502 578 35,000  Level Minneapolis Center
07:51PM 45.6564 -102.2936 115° Southeast 502 578 35,000  Level Minneapolis Center
07:52PM 45.5981 -102.1131 115° Southeast 502 578 35,000  Level Minneapolis Center
07:53PM 45.5367 -101.9342 116° Southeast 503 579 35,000  Level Minneapolis Center
07:54PM 45.4772 -101.7556 115° Southeast 501 577 35,000  Level Minneapolis Center
07:55PM 45.4058 -101.5400 115° Southeast 502 578 35,000  Level Minneapolis Center
07:57PM 45.3456 -101.3608 116° Southeast 503 579 35,000  Level Minneapolis Center
07:58PM 45.2839 -101.1822 116° Southeast 505 581 35,000  Level Minneapolis Center
07:59PM 45.2250 -101.0006 115° Southeast 507 583 35,000  Level Minneapolis Center
08:00PM 45.1628 -100.8231 116° Southeast 505 581 35,000  Level Minneapolis Center
08:01PM 45.1000 -100.6464 117° Southeast 504 580 35,000  Level Minneapolis Center
08:02PM 45.0375 -100.4706 117° Southeast 504 580 35,000  Level Minneapolis Center
08:03PM 44.9628 -100.2592 116° Southeast 505 581 35,000  Level Minneapolis Center
08:04PM 44.8989 -100.0869 118° Southeast 507 583 35,000  Level Minneapolis Center
08:05PM 44.8375 -99.9117 116° Southeast 509 586 35,000  Level Minneapolis Center
08:06PM 44.7764 -99.7397 117° Southeast 501 577 35,000  Level Minneapolis Center
08:07PM 44.7153 -99.5700 117° Southeast 492 566 35,000  Level Minneapolis Center
08:08PM 44.6414 -99.3656 117° Southeast 491 565 35,000  Level Minneapolis Center
08:09PM 44.5800 -99.1972 117° Southeast 488 562 35,000  Level Minneapolis Center
08:10PM 44.5178 -99.0294 117° Southeast 486 559 35,000  Level Minneapolis Center
08:11PM 44.4831 -98.8550 106° East 472 543 35,000  Level Minneapolis Center
08:17PM 44.3140 -97.7293 106° East 474 545 35,000  Level FlightAware ADS-B
08:18PM 44.2999 -97.6389 102° East 474 545 35,000  Level FlightAware ADS-B
08:18PM 44.2858 -97.5494 102° East 475 547 35,000  Level FlightAware ADS-B
08:19PM 44.2717 -97.4601 102° East 475 547 35,000  Level FlightAware ADS-B
08:19PM 44.2571 -97.3694 103° East 475 547 35,000  Level FlightAware ADS-B
08:20PM 44.2427 -97.2792 103° East 474 545 35,000  Level FlightAware ADS-B
08:20PM 44.2278 -97.1874 103° East 471 542 35,000  Level FlightAware ADS-B
08:21PM 44.2133 -97.0968 103° East 467 537 35,000 -300 Level FlightAware ADS-B
08:21PM 44.1975 -96.9999 103° East 466 536 34,700 -600 Descending FlightAware ADS-B
08:22PM 44.1831 -96.9124 103° East 465 535 34,400 -540 Descending FlightAware ADS-B
08:23PM 44.1581 -96.7594 103° East 465 535 34,000 -480 Descending FlightAware ADS-B
08:23PM 44.1437 -96.6707 103° East 470 541 33,800 -540 Descending FlightAware ADS-B
08:24PM 44.1287 -96.5818 103° East 472 543 33,500 -480 Descending FlightAware ADS-B
08:24PM 44.1119 -96.4833 103° East 472 543 33,300 -480 Descending FlightAware ADS-B
08:25PM 44.0935 -96.3762 103° East 469 540 33,000 -300 Descending FlightAware ADS-B
08:25PM 44.0773 -96.2810 103° East 466 536 33,000  Level FlightAware ADS-B
08:26PM 44.0621 -96.1911 103° East 466 536 33,000  Level FlightAware ADS-B
08:26PM 44.0434 -96.0804 103° East 465 535 33,000  Level FlightAware ADS-B
08:27PM 44.0251 -95.9741 103° East 465 535 33,000  Level FlightAware ADS-B
08:28PM 44.0068 -95.8681 103° East 466 536 33,000  Level FlightAware ADS-B
08:28PM 43.9917 -95.7806 103° East 465 535 33,000  Level FlightAware ADS-B
08:29PM 43.9762 -95.6937 104° East 464 534 33,000  Level FlightAware ADS-B
08:29PM 43.9606 -95.6055 104° East 464 534 33,000  Level FlightAware ADS-B
08:30PM 43.9261 -95.4106 104° East 462 532 33,000  Level Minneapolis Center
08:31PM 43.8944 -95.2394 104° East 460 529 33,000  Level Minneapolis Center
08:32PM 43.8647 -95.0703 104° East 456 525 33,000  Level Minneapolis Center
08:38PM 43.6900 -94.1360 104° East 451 519 33,000  Level FlightAware
08:39PM 43.6710 -94.0300 104° East 451 519 33,000  Level FlightAware
08:39PM 43.6430 -93.8920 106° East 450 518 33,000  Level FlightAware
08:41PM 43.5960 -93.6510 105° East 448 516 33,000  Level FlightAware
08:41PM 43.5730 -93.5350 105° East 446 513 33,000  Level FlightAware
08:42PM 43.5510 -93.4190 105° East 444 511 33,000  Level FlightAware
08:43PM 43.5260 -93.2960 106° East 443 510 33,000  Level FlightAware
08:44PM 43.5040 -93.1840 105° East 443 510 33,000  Level FlightAware
08:44PM 43.4810 -93.0700 106° East 443 510 33,000  Level FlightAware
08:45PM 43.4580 -92.9580 106° East 443 510 33,000  Level FlightAware
08:46PM 43.4370 -92.8530 105° East 443 510 33,000  Level FlightAware
08:46PM 43.4110 -92.7290 106° East 443 510 33,000  Level FlightAware
08:47PM 43.3870 -92.6100 105° East 443 510 33,000  Level FlightAware
08:48PM 43.3640 -92.5010 106° East 444 511 33,000  Level FlightAware
08:48PM 43.3420 -92.3950 106° East 443 510 33,000  Level FlightAware
08:49PM 43.3160 -92.2700 106° East 441 507 33,000  Level FlightAware
08:50PM 43.2970 -92.1790 106° East 440 506 33,000  Level FlightAware
08:51PM 43.2710 -92.0560 106° East 437 503 33,000  Level FlightAware
08:51PM 43.2450 -91.9350 106° East 436 502 33,000  Level FlightAware
08:52PM 43.2230 -91.8310 106° East 434 499 33,000 -660 Level FlightAware
08:53PM 43.1980 -91.7150 106° East 431 496 32,100 -1,440 Descending FlightAware
08:53PM 43.1690 -91.6100 111° Southeast 442 509 31,000 -780 Descending FlightAware
08:54PM 43.1310 -91.4990 115° Southeast 448 516 31,000  Level FlightAware
08:55PM 43.0950 -91.3950 115° Southeast 447 514 31,000  Level FlightAware
08:56PM 43.0470 -91.2580 116° Southeast 445 512 31,000 -420 Level FlightAware
08:56PM 43.0110 -91.1540 115° Southeast 439 505 30,400 -1,140 Descending FlightAware
08:57PM 42.9720 -91.0440 116° Southeast 431 496 29,400 -1,320 Descending FlightAware
08:58PM 42.9380 -90.9450 115° Southeast 426 490 28,600 -1,260 Descending FlightAware
08:58PM 42.9060 -90.8550 116° Southeast 423 487 27,800 -1,200 Descending FlightAware
08:59PM 42.8680 -90.7460 115° Southeast 417 480 27,000 -1,080 Descending FlightAware
09:00PM 42.8340 -90.6500 116° Southeast 416 479 26,300 -1,020 Descending FlightAware
09:01PM 42.7830 -90.5070 116° Southeast 410 472 25,300 -1,020 Descending FlightAware
09:02PM 42.7510 -90.4180 116° Southeast 406 467 24,600 -1,020 Descending FlightAware
09:02PM 42.7170 -90.3220 116° Southeast 403 464 24,000 -420 Descending FlightAware
09:03PM 42.6810 -90.2230 116° Southeast 401 461 24,000  Level FlightAware
09:04PM 42.6480 -90.1320 116° Southeast 400 460 24,000 -180 Level FlightAware
09:04PM 42.6110 -90.0290 116° Southeast 413 475 23,800 -840 Descending FlightAware
09:05PM 42.5660 -89.9060 116° Southeast 412 474 22,700 -1,500 Descending FlightAware
09:06PM 42.5280 -89.8000 116° Southeast 404 465 21,400 -1,800 Descending FlightAware
09:07PM 42.5170 -89.7020 99° East 399 459 20,200 -1,500 Descending FlightAware
09:07PM 42.5160 -89.6020 91° East 393 452 19,400 -900 Descending FlightAware
09:08PM 42.5140 -89.4930 91° East 392 451 19,000 -1,080 Descending FlightAware
09:09PM 42.5120 -89.3910 91° East 385 443 17,900 -1,500 Descending FlightAware
09:09PM 42.5110 -89.2970 91° East 383 441 17,000 -1,320 Descending FlightAware
09:10PM 42.5090 -89.2000 92° East 378 435 16,200 -1,440 Descending FlightAware
09:11PM 42.4880 -89.0380 100° East 361 415 14,400 -1,440 Descending FlightAware
09:12PM 42.4680 -88.9440 106° East 360 414 13,500 -1,260 Descending FlightAware
09:13PM 42.4500 -88.8580 106° East 356 410 12,700 -1,320 Descending FlightAware
09:13PM 42.4310 -88.7700 106° East 328 377 11,700 -1,200 Descending FlightAware
09:14PM 42.4160 -88.6930 105° East 300 345 11,100 -1,020 Descending FlightAware
09:15PM 42.4000 -88.6150 105° East 297 342 10,300 -1,200 Descending FlightAware
09:15PM 42.3880 -88.5600 106° East 296 341 9,700 -1,080 Descending FlightAware
09:16PM 42.3770 -88.5120 107° East 292 336 9,300 -540 Descending FlightAware
09:16PM 42.3650 -88.4640 109° East 288 331 9,200 -240 Descending FlightAware
09:17PM 42.3400 -88.4260 132° Southeast 294 338 9,100 -480 Descending FlightAware
09:17PM 42.3050 -88.4080 159° South 296 341 8,800 -660 Descending FlightAware
09:18PM 42.2690 -88.3910 161° South 294 338 8,500 -780 Descending FlightAware
09:18PM 42.2320 -88.3720 159° South 292 336 8,100 -1,020 Descending FlightAware
09:19PM 42.1980 -88.3560 161° South 289 333 7,600 -1,140 Descending FlightAware
09:19PM 42.1640 -88.3400 161° South 291 335 7,100 -1,020 Descending FlightAware
09:19PM 42.1290 -88.3250 162° South 284 327 6,700 -840 Descending FlightAware
09:20PM 42.1190 -88.3200 160° South 280 322 6,600 -600 Descending FlightAware
09:20PM 42.0810 -88.3090 168° South 258 297 6,300 -960 Descending FlightAware
09:21PM 42.0490 -88.3100 181° South 255 293 5,700 -1,080 Descending FlightAware
09:21PM 42.0140 -88.3100 180° South 239 275 5,300 -840 Descending FlightAware
09:22PM 41.9740 -88.2900 160° South 188 216 4,700 -840 Descending FlightAware
09:22PM 41.9680 -88.2610 106° East 172 198 4,300 -540 Descending FlightAware
09:23PM 41.9680 -88.2320 90° East 171 197 4,200 -120 Descending FlightAware
09:23PM 41.9680 -88.2030 90° East 170 196 4,200  Level FlightAware
09:24PM 41.9680 -88.1810 90° East 168 193 4,200 -360 Level FlightAware
09:24PM 41.9680 -88.1490 90° East 171 197 3,900 -720 Descending FlightAware
09:25PM 41.9680 -88.1010 90° East 166 191 3,300 -780 Descending FlightAware
09:25PM 41.9690 -88.0750 87° East 165 190 2,900 -960 Descending FlightAware
09:26PM 41.9690 -88.0290 90° East 162 186 2,200 -900 Descending FlightAware
09:27PM 41.9690 -87.9940 90° East 146 168 1,800 -780 Descending FlightAware
09:27PM 41.9690 -87.9630 90° East 149 171 1,300 -900 Descending FlightAware
09:28PM 41.9690 -87.9410 90° East 151 174 1,000 -480 Descending FlightAware
09:28PM 41.9690 -87.9130 90° East 150 173 900 -180 Descending FlightAware